Archival Weather

Yakutsk

Yakutsk, Russia (UEEE)

Report from: Monday, February 6, 2023 4:30 AM JST
Current time: Sunday, April 14, 2024 8:53 PM JST

Current weather – Weather history – Daily summaries
Weather forecast

Present weatherLight snow, mist
Temperature-41.0°C (-41.8°F)
Dew point-44.0°C (-47.2°F)
Winds 1.9 kts (1 m/s, 2.2 mph) Northwest (320°)
Visibility4921.3 ft. (1.5 km)
Altimeter30.18 in.Hg (1022 mB)
Precip. events QF 6:38 AM
Relative humidity72 %
Density altitude-7,862 ft. (-2,396 m)
Remarks No significant changes expected in the next two hours
Flight conditions Low Instrument Meteorological Conditions
Raw dataUEEE 051930Z 32001MPS 1500 R23L/P2000D -SN BR NSC M41/M44 Q1022 R23L/490150 NOSIG RMK QFE758
An error has occurred. This application may no longer respond until reloaded. Reload 🗙